الصفحة الرئيسية
METAR-TAF:

METAR-TAF

مطار :

Sydney, نوفا سكوشا, كندا

دائرة عرض: 46-10N, خط طول: 060-03W, ارتفاع: 56 متر

مراقبة الطقس الحالي

تاريخ ووقت الإصدار 39 دقيقة قبل الساعة 12:00UTC
ريح 7 عقدة من الجنوب الغربي
درجة الحرارة -7°درجة مئوية
الرطوبة 62%
ضغط 1033 hPa
الرؤية: 24.1 كم
غيوم قليلة على ارتفاع 3500 قدم
غيوم مفككة على ارتفاع 25000 قدم

METAR: CYQY 021200Z 23007KT 15SM FEW035 BKN250 M07/M13 A3050 RMK SC1CI5 SC TR SLP336

زمن: 08:39 (12:39 UTC)

توقعات

تاريخ ووقت الإصدار 58 دقيقة قبل الساعة 11:41UTC
التوقعات صالحة من02 الساعة 12 UTC إلى 02 الساعة 24 UTC
ريح 5 عقدة من الغرب/الجنوب الغربي
الرؤية: 10 كم
غيوم قليلة على ارتفاع 3000 قدم
غيوم متفرقة على ارتفاع 24000 قدم
أصبح
من 02 الساعة 12 UTC إلى 02 الساعة 14 UTC
ريح 12 عقدة من الغرب/الجنوب الغربي تتزايد حتى 22 عقدة
غيوم متفرقة على ارتفاع 14000 قدم
من 02 الساعة 2100 UTC
ريح 15 عقدة من الجنوب/الجنوب الغربي
الرؤية: 10 كم
غيوم قليلة على ارتفاع 17000 قدم

TAF: CYQY 021141Z 0212/0224 24005KT P6SM FEW030 SCT240 BECMG 0212/0214 24012G22KT SCT140 FM022100 21015KT P6SM FEW170 RMK NXT FCST BY 021800Z

أرصاد الطقس والتوقعات من أكثر من 4000 مطار (تقارير الطقس للمطار METAR والتنبؤ بالطقس بالمطارTAF).

المحطات المتاحة هي النقط الصفراء والحمراء على الخريطة.

حرك المؤشر فوق النقطة لمعرفة اسم المحطة.

ثم انقر لمعرفة أرصاد وتوقعات الطقس.

لتغيير الخارطة: اضغط على الأزرار الخضراء مع رمز الصليب الأسود للتكبير. على الزر الأخضر مع شرطة للتصغير، أو على الأسهم الخضراء للخرائط المجاورة.


METAR-TAF: